Time;durP1;ratioP1;P1;durP2;ratioP2;P2;SDS_P1;SDS_P2;PMS_P1;PMS_P2;Temp;Humidity;BMP_temperature;BMP_pressure;BME280_temperature;BME280_humidity;BME280_pressure;Samples;Min_cycle;Max_cycle;Signal;HPM_P1;HPM_P2
2021/03/03 00:00:45;;;;;;;27.90;14.27;;;3.00;99.90;;;;;;5065787;28;20529;-83
2021/03/03 00:03:10;;;;;;;26.73;12.10;;;3.00;99.90;;;;;;5063287;28;20029;-83
2021/03/03 00:05:36;;;;;;;25.83;12.23;;;3.00;99.90;;;;;;5061100;28;20102;-83
2021/03/03 00:08:02;;;;;;;25.97;13.40;;;3.00;99.90;;;;;;5049015;28;20035;-82
2021/03/03 00:10:27;;;;;;;25.53;12.50;;;2.90;99.90;;;;;;5047501;28;20505;-83
2021/03/03 00:12:53;;;;;;;24.33;11.63;;;2.90;99.90;;;;;;5061126;28;20029;-83
2021/03/03 00:15:19;;;;;;;24.90;12.13;;;2.90;99.90;;;;;;5063239;28;20056;-84
2021/03/03 00:17:45;;;;;;;25.27;12.40;;;3.00;99.90;;;;;;5064840;28;20029;-82
2021/03/03 00:20:11;;;;;;;24.37;12.57;;;2.90;99.90;;;;;;5062434;28;20498;-81
2021/03/03 00:22:37;;;;;;;22.10;11.80;;;2.90;99.90;;;;;;5063960;28;20091;-81
2021/03/03 00:25:03;;;;;;;24.93;13.17;;;2.80;99.90;;;;;;5064658;28;20543;-81
2021/03/03 00:27:29;;;;;;;26.27;13.87;;;2.60;99.90;;;;;;5060559;28;20026;-80
2021/03/03 00:29:55;;;;;;;23.57;13.33;;;2.60;99.90;;;;;;5061419;28;20124;-81
2021/03/03 00:32:20;;;;;;;25.03;13.30;;;2.50;99.90;;;;;;5060040;28;20114;-80
2021/03/03 00:34:46;;;;;;;28.17;14.07;;;2.40;99.90;;;;;;5061691;28;20024;-81
2021/03/03 00:37:11;;;;;;;26.47;12.77;;;2.40;99.90;;;;;;5059885;28;20098;-81
2021/03/03 00:39:37;;;;;;;26.40;12.97;;;2.30;99.90;;;;;;5050928;28;20035;-81
2021/03/03 00:42:03;;;;;;;23.80;12.17;;;2.30;99.90;;;;;;5068727;28;20060;-82
2021/03/03 00:44:29;;;;;;;28.63;13.20;;;2.30;99.90;;;;;;5060193;28;20043;-82
2021/03/03 00:46:54;;;;;;;28.90;12.17;;;2.30;99.90;;;;;;5047436;28;20035;-83
2021/03/03 00:49:20;;;;;;;26.60;13.10;;;2.30;99.90;;;;;;5086958;28;20013;-80
2021/03/03 00:51:46;;;;;;;24.93;12.67;;;2.30;99.90;;;;;;5093497;28;20068;-82
2021/03/03 00:54:11;;;;;;;24.07;11.90;;;2.40;99.90;;;;;;5065108;28;20108;-81
2021/03/03 00:56:37;;;;;;;24.00;12.83;;;2.40;99.90;;;;;;5064620;28;20025;-83
2021/03/03 00:59:03;;;;;;;26.03;12.13;;;2.40;99.90;;;;;;5063258;28;20032;-82
2021/03/03 01:01:28;;;;;;;21.10;11.70;;;2.30;99.90;;;;;;5053993;28;20041;-83
2021/03/03 01:03:54;;;;;;;24.40;11.87;;;2.40;99.90;;;;;;5066349;28;20103;-81
2021/03/03 01:06:20;;;;;;;27.87;12.47;;;2.40;99.90;;;;;;5064950;28;20111;-79
2021/03/03 01:08:45;;;;;;;25.73;11.80;;;2.40;99.90;;;;;;5061885;28;20025;-81
2021/03/03 01:11:11;;;;;;;21.87;11.70;;;2.40;99.90;;;;;;5068846;28;20059;-81
2021/03/03 01:13:37;;;;;;;22.57;12.33;;;2.40;99.90;;;;;;5063082;28;20040;-81
2021/03/03 01:16:03;;;;;;;21.47;11.90;;;2.40;99.90;;;;;;5067636;28;20402;-80
2021/03/03 01:18:30;;;;;;;21.13;10.57;;;2.30;99.90;;;;;;5066817;28;20097;-82
2021/03/03 01:20:57;;;;;;;19.73;9.73;;;2.40;99.90;;;;;;5064401;28;20048;-82
2021/03/03 01:23:23;;;;;;;18.33;9.27;;;2.60;99.90;;;;;;5039507;28;20028;-81
2021/03/03 01:25:49;;;;;;;16.87;9.77;;;2.80;99.90;;;;;;5057527;28;20044;-81
2021/03/03 01:28:14;;;;;;;19.40;10.63;;;2.90;99.90;;;;;;5067282;28;20143;-82
2021/03/03 01:30:40;;;;;;;21.17;10.03;;;3.00;99.90;;;;;;5051502;28;20563;-80
2021/03/03 01:33:06;;;;;;;19.20;9.70;;;3.00;99.90;;;;;;5049337;28;20017;-80
2021/03/03 01:35:32;;;;;;;21.27;10.57;;;2.90;99.90;;;;;;5062431;28;20108;-81
2021/03/03 01:37:57;;;;;;;19.43;9.97;;;2.80;99.90;;;;;;5047255;28;20412;-80
2021/03/03 01:40:24;;;;;;;17.50;10.10;;;2.60;99.90;;;;;;5052773;28;20041;-81
2021/03/03 01:42:52;;;;;;;19.00;10.23;;;2.50;99.90;;;;;;5086028;28;20016;-81
2021/03/03 01:45:18;;;;;;;20.77;10.50;;;2.50;99.90;;;;;;5084093;28;20021;-80
2021/03/03 01:47:43;;;;;;;17.73;9.17;;;2.40;99.90;;;;;;5079733;28;20044;-82
2021/03/03 01:50:10;;;;;;;18.87;9.67;;;2.30;99.90;;;;;;5070935;28;20090;-81
2021/03/03 01:52:38;;;;;;;20.57;10.20;;;2.30;99.90;;;;;;5059526;28;20024;-81
2021/03/03 01:55:05;;;;;;;22.43;10.23;;;2.20;99.90;;;;;;5066581;28;20036;-80
2021/03/03 01:57:32;;;;;;;21.30;10.00;;;2.20;99.90;;;;;;5062294;28;20020;-81
2021/03/03 01:59:58;;;;;;;19.30;9.70;;;2.20;99.90;;;;;;5071033;28;20463;-80
2021/03/03 02:02:25;;;;;;;18.93;10.13;;;2.10;99.90;;;;;;5048038;28;20495;-81
2021/03/03 02:04:55;;;;;;;23.03;11.00;;;2.00;99.90;;;;;;5061133;28;20078;-81
2021/03/03 02:07:35;;;;;;;20.33;10.50;;;2.10;99.90;;;;;;5063607;28;20039;-82
2021/03/03 02:10:14;;;;;;;20.30;10.73;;;2.00;99.90;;;;;;5066877;28;20032;-81
2021/03/03 02:12:45;;;;;;;23.10;10.17;;;1.90;99.90;;;;;;5055918;28;20103;-83
2021/03/03 02:15:11;;;;;;;21.00;9.93;;;1.80;99.90;;;;;;5069321;28;20404;-82
2021/03/03 02:17:40;;;;;;;20.10;10.57;;;1.80;99.90;;;;;;5060192;28;20075;-83
2021/03/03 02:20:09;;;;;;;21.37;10.80;;;1.70;99.90;;;;;;5060573;28;20136;-81
2021/03/03 02:22:54;;;;;;;22.02;10.15;;;1.70;99.90;;;;;;5063633;28;20498;-82
2021/03/03 02:25:35;;;;;;;20.23;10.57;;;1.60;99.90;;;;;;5067085;28;20029;-82
2021/03/03 02:28:05;;;;;;;19.30;9.67;;;1.50;99.90;;;;;;5061730;28;20029;-81
2021/03/03 02:30:32;;;;;;;20.17;9.85;;;1.40;99.90;;;;;;5062698;28;20095;-81
2021/03/03 02:32:59;;;;;;;19.80;9.97;;;1.40;99.90;;;;;;5067577;28;20056;-81
2021/03/03 02:35:26;;;;;;;26.00;10.63;;;1.40;99.90;;;;;;5064125;28;20021;-82
2021/03/03 02:37:52;;;;;;;23.37;10.53;;;1.30;99.90;;;;;;5049215;28;20028;-82
2021/03/03 02:40:19;;;;;;;21.17;10.57;;;1.40;99.90;;;;;;5044963;28;20049;-81
2021/03/03 02:42:45;;;;;;;20.90;10.33;;;1.30;99.90;;;;;;5061159;28;20078;-82
2021/03/03 02:45:13;;;;;;;22.50;10.83;;;1.30;99.90;;;;;;5070609;28;20028;-82
2021/03/03 02:47:40;;;;;;;22.67;10.70;;;1.20;99.90;;;;;;5064678;28;20757;-81
2021/03/03 02:50:07;;;;;;;22.23;10.10;;;1.20;99.90;;;;;;5067474;28;20411;-81
2021/03/03 02:52:54;;;;;;;20.00;10.30;;;1.30;99.90;;;;;;5067262;28;20060;-82
2021/03/03 02:55:21;;;;;;;19.20;9.70;;;1.20;99.90;;;;;;5046238;28;20467;-81
2021/03/03 02:57:48;;;;;;;17.17;9.93;;;1.10;99.90;;;;;;5067648;28;20032;-83
2021/03/03 03:00:17;;;;;;;20.50;10.03;;;1.00;99.90;;;;;;5061733;28;20203;-82
2021/03/03 03:02:45;;;;;;;15.48;7.43;;;0.90;99.90;;;;;;5090703;28;20025;-81
2021/03/03 03:05:13;;;;;;;13.10;7.03;;;1.00;99.90;;;;;;5070763;28;20439;-82
2021/03/03 03:07:44;;;;;;;20.40;8.73;;;1.10;99.90;;;;;;5054506;28;20044;-82
2021/03/03 03:10:14;;;;;;;16.20;8.07;;;1.10;99.90;;;;;;5068342;28;20029;-81
2021/03/03 03:12:44;;;;;;;16.27;7.87;;;1.10;99.90;;;;;;5060882;28;20028;-81
2021/03/03 03:15:12;;;;;;;17.65;8.60;;;1.10;99.90;;;;;;5050000;28;20054;-82
2021/03/03 03:17:38;;;;;;;16.10;8.50;;;1.10;99.90;;;;;;5057144;28;20556;-82
2021/03/03 03:20:05;;;;;;;16.10;7.63;;;1.20;99.90;;;;;;5046247;28;20128;-82
2021/03/03 03:22:32;;;;;;;16.37;8.10;;;1.10;99.90;;;;;;5063087;28;20036;-83
2021/03/03 03:24:59;;;;;;;17.37;8.47;;;1.20;99.90;;;;;;5070716;28;20112;-82
2021/03/03 03:27:26;;;;;;;13.83;7.50;;;1.30;99.90;;;;;;5061504;28;20036;-81
2021/03/03 03:29:52;;;;;;;17.97;7.53;;;1.30;99.90;;;;;;5054083;28;20037;-82
2021/03/03 03:32:19;;;;;;;17.93;7.93;;;1.40;99.90;;;;;;5034820;28;20038;-82
2021/03/03 03:34:45;;;;;;;14.97;7.63;;;1.40;99.90;;;;;;5041782;28;20021;-84
2021/03/03 03:37:13;;;;;;;16.30;7.47;;;1.50;99.90;;;;;;5043888;28;20040;-82
2021/03/03 03:39:39;;;;;;;19.47;8.00;;;1.50;99.90;;;;;;5049792;28;20021;-83
2021/03/03 03:42:07;;;;;;;16.30;7.70;;;1.50;99.90;;;;;;5044413;28;20090;-83
2021/03/03 03:44:33;;;;;;;15.80;8.00;;;1.50;99.90;;;;;;5050710;28;20024;-84
2021/03/03 03:46:59;;;;;;;16.63;8.87;;;1.40;99.90;;;;;;5049911;28;20021;-83
2021/03/03 03:49:25;;;;;;;20.57;8.70;;;1.40;99.90;;;;;;5038084;28;20431;-82
2021/03/03 03:51:51;;;;;;;19.20;7.73;;;1.40;99.90;;;;;;5051674;28;20071;-83
2021/03/03 03:54:17;;;;;;;19.50;7.63;;;1.40;99.90;;;;;;5039500;28;20052;-84
2021/03/03 03:56:43;;;;;;;21.57;7.70;;;1.30;99.90;;;;;;5041035;28;20553;-83
2021/03/03 03:59:09;;;;;;;20.63;7.57;;;1.30;99.90;;;;;;5043611;28;20060;-82
2021/03/03 04:01:35;;;;;;;22.70;8.23;;;1.30;99.90;;;;;;5049777;28;20041;-83
2021/03/03 04:04:00;;;;;;;23.97;8.07;;;1.20;99.90;;;;;;5034376;28;20039;-82
2021/03/03 04:06:26;;;;;;;15.80;7.57;;;1.10;99.90;;;;;;5060595;28;20029;-80
2021/03/03 04:08:52;;;;;;;20.47;7.97;;;1.20;99.90;;;;;;5068134;28;20043;-81
2021/03/03 04:11:18;;;;;;;23.03;9.13;;;1.10;99.90;;;;;;5054089;28;20517;-81
2021/03/03 04:13:43;;;;;;;17.10;7.53;;;1.10;99.90;;;;;;5052722;28;20029;-82
2021/03/03 04:16:09;;;;;;;13.67;7.50;;;1.10;99.90;;;;;;5045968;28;20036;-81
2021/03/03 04:18:35;;;;;;;15.47;7.43;;;1.00;99.90;;;;;;5042105;28;20025;-81
2021/03/03 04:21:00;;;;;;;17.07;7.83;;;0.90;99.90;;;;;;5040476;28;20396;-82
2021/03/03 04:23:26;;;;;;;15.73;7.53;;;0.80;99.90;;;;;;5042063;28;20028;-82
2021/03/03 04:25:52;;;;;;;16.63;7.70;;;0.80;99.90;;;;;;5041136;28;20030;-81
2021/03/03 04:28:17;;;;;;;15.93;7.63;;;0.80;99.90;;;;;;5042247;28;20089;-81
2021/03/03 04:30:43;;;;;;;18.17;7.67;;;0.80;99.90;;;;;;5039693;28;20147;-82
2021/03/03 04:33:09;;;;;;;15.73;7.77;;;0.80;99.90;;;;;;5037062;28;20468;-82
2021/03/03 04:35:35;;;;;;;20.33;8.87;;;0.70;99.90;;;;;;5041783;28;20037;-84
2021/03/03 04:38:01;;;;;;;17.20;7.87;;;0.70;99.90;;;;;;5044371;28;20037;-81
2021/03/03 04:40:27;;;;;;;16.80;7.33;;;0.60;99.90;;;;;;5047594;28;20148;-81
2021/03/03 04:42:52;;;;;;;16.77;7.53;;;0.70;99.90;;;;;;5040132;28;20229;-82
2021/03/03 04:45:18;;;;;;;12.33;6.27;;;0.70;99.90;;;;;;5048458;28;20040;-81
2021/03/03 04:47:44;;;;;;;12.40;6.60;;;0.70;99.90;;;;;;5043865;28;20096;-81
2021/03/03 04:50:10;;;;;;;12.40;6.00;;;0.60;99.90;;;;;;5040025;28;20025;-82
2021/03/03 04:52:36;;;;;;;11.57;6.03;;;0.70;99.90;;;;;;5040179;28;20028;-82
2021/03/03 04:55:03;;;;;;;12.60;6.23;;;0.70;99.90;;;;;;5046417;28;20021;-82
2021/03/03 04:57:29;;;;;;;12.80;6.17;;;0.70;99.90;;;;;;5048226;28;20043;-80
2021/03/03 04:59:55;;;;;;;9.67;5.40;;;0.80;99.90;;;;;;5041025;28;20120;-82
2021/03/03 05:02:20;;;;;;;10.03;5.40;;;0.80;99.90;;;;;;5043067;28;20017;-82
2021/03/03 05:04:46;;;;;;;10.47;4.73;;;0.90;99.90;;;;;;5038311;28;20029;-83
2021/03/03 05:07:13;;;;;;;10.60;4.80;;;1.00;99.90;;;;;;5047658;28;20028;-83
2021/03/03 05:09:38;;;;;;;11.90;4.47;;;1.10;99.90;;;;;;5052196;28;20051;-83
2021/03/03 05:12:04;;;;;;;9.43;4.17;;;1.20;99.90;;;;;;5057915;28;20013;-82
2021/03/03 05:14:30;;;;;;;7.47;3.87;;;1.30;99.90;;;;;;5071958;28;20041;-82
2021/03/03 05:16:56;;;;;;;8.63;3.80;;;1.40;99.90;;;;;;5053789;28;20048;-81
2021/03/03 05:19:21;;;;;;;12.63;4.50;;;1.40;99.90;;;;;;5045669;28;20458;-82
2021/03/03 05:21:47;;;;;;;10.97;4.50;;;1.40;99.90;;;;;;5039811;28;20116;-82
2021/03/03 05:24:13;;;;;;;10.90;5.10;;;1.30;99.90;;;;;;5043311;28;20215;-83
2021/03/03 05:26:39;;;;;;;10.03;4.50;;;1.30;99.90;;;;;;5039205;28;20044;-82
2021/03/03 05:29:04;;;;;;;10.47;5.03;;;1.30;99.90;;;;;;5045045;28;20037;-81
2021/03/03 05:31:30;;;;;;;7.53;4.23;;;1.20;99.90;;;;;;5059502;28;20033;-80
2021/03/03 05:33:56;;;;;;;9.73;4.63;;;1.20;99.90;;;;;;5059232;28;20025;-81
2021/03/03 05:36:21;;;;;;;11.30;4.60;;;1.10;99.90;;;;;;5062088;28;20450;-81
2021/03/03 05:38:47;;;;;;;10.43;4.60;;;1.10;99.90;;;;;;5065911;28;20456;-81
2021/03/03 05:41:13;;;;;;;10.50;4.30;;;1.10;99.90;;;;;;5064853;28;20407;-82
2021/03/03 05:43:39;;;;;;;10.93;4.07;;;1.20;99.90;;;;;;5047880;28;20039;-81
2021/03/03 05:46:06;;;;;;;10.10;4.53;;;1.30;99.90;;;;;;5060202;28;20033;-81
2021/03/03 05:48:43;;;;;;;10.23;4.93;;;1.40;99.90;;;;;;5062220;28;20029;-82
2021/03/03 05:51:09;;;;;;;14.40;6.00;;;1.40;99.90;;;;;;5065225;28;20055;-79
2021/03/03 05:53:36;;;;;;;8.20;4.20;;;1.40;99.90;;;;;;5069963;28;20032;-83
2021/03/03 05:56:03;;;;;;;13.23;4.50;;;1.40;99.90;;;;;;5063689;28;20021;-82
2021/03/03 05:58:31;;;;;;;9.10;4.03;;;1.60;99.90;;;;;;5040443;28;20041;-77
2021/03/03 06:00:57;;;;;;;8.50;4.40;;;1.50;99.90;;;;;;5062574;28;20028;-78
2021/03/03 06:03:24;;;;;;;9.37;4.37;;;1.50;99.90;;;;;;5063158;28;20029;-78
2021/03/03 06:05:50;;;;;;;9.10;4.37;;;1.40;99.90;;;;;;5066382;28;20037;-78
2021/03/03 06:08:17;;;;;;;8.30;3.97;;;1.50;99.90;;;;;;5071752;28;20017;-78
2021/03/03 06:10:44;;;;;;;5.87;3.30;;;1.60;99.90;;;;;;5069046;28;20037;-80
2021/03/03 06:13:10;;;;;;;6.43;3.20;;;1.70;99.90;;;;;;5064947;28;20033;-78
2021/03/03 06:15:37;;;;;;;10.87;3.43;;;1.90;99.90;;;;;;5047062;28;20387;-78
2021/03/03 06:18:05;;;;;;;7.27;3.10;;;2.10;99.90;;;;;;5065590;28;20032;-82
2021/03/03 06:20:36;;;;;;;6.30;3.20;;;2.30;99.90;;;;;;5066575;28;20476;-78
2021/03/03 06:23:32;;;;;;;8.57;3.33;;;2.40;99.90;;;;;;5070687;28;20040;-79
2021/03/03 06:25:58;;;;;;;9.60;3.27;;;2.50;99.90;;;;;;4968397;28;20463;-79
2021/03/03 06:28:43;;;;;;;6.13;2.90;;;2.60;99.90;;;;;;4970093;28;20704;-78
2021/03/03 06:31:30;;;;;;;10.60;2.90;;;2.80;99.90;;;;;;4971375;28;20054;-77
2021/03/03 06:34:21;;;;;;;7.13;2.93;;;3.00;99.90;;;;;;4974768;28;20039;-77
2021/03/03 06:36:55;;;;;;;10.60;3.40;;;3.20;99.90;;;;;;4986611;28;20034;-78
2021/03/03 06:39:21;;;;;;;6.57;2.90;;;3.20;99.90;;;;;;4983393;28;20045;-81
2021/03/03 06:41:50;;;;;;;6.43;2.70;;;3.40;99.90;;;;;;4992210;28;20023;-79
2021/03/03 06:44:16;;;;;;;9.45;3.45;;;3.40;99.90;;;;;;4962375;28;20042;-78
2021/03/03 06:46:42;;;;;;;8.27;3.38;;;3.60;99.90;;;;;;4973522;28;20042;-78
2021/03/03 06:49:22;;;;;;;7.10;3.53;;;3.60;99.90;;;;;;4974085;28;20038;-78
2021/03/03 06:51:49;;;;;;;;;;;3.70;99.90;;;;;;4972083;28;20038;-77
2021/03/03 06:54:20;;;;;;;10.57;3.70;;;3.70;99.90;;;;;;4973644;28;19941;-79
2021/03/03 06:56:48;;;;;;;10.57;3.40;;;3.80;99.90;;;;;;4973871;28;20050;-78
2021/03/03 06:59:18;;;;;;;9.70;3.40;;;3.90;99.90;;;;;;4970654;28;20035;-77
2021/03/03 07:01:45;;;;;;;13.13;3.95;;;4.00;99.90;;;;;;4990210;28;20048;-79
2021/03/03 07:04:38;;;;;;;12.38;3.80;;;4.10;99.90;;;;;;5062529;28;20414;-78
2021/03/03 07:07:12;;;;;;;9.88;3.78;;;4.20;99.90;;;;;;5059455;28;20045;-77
2021/03/03 07:09:48;;;;;;;13.77;4.30;;;4.30;99.90;;;;;;5037942;28;20052;-78
2021/03/03 07:12:19;;;;;;;6.45;3.70;;;4.40;99.90;;;;;;5059820;28;20523;-80
2021/03/03 07:14:57;;;;;;;8.65;3.00;;;4.50;99.90;;;;;;5058725;28;20027;-78
2021/03/03 07:17:24;;;;;;;8.85;3.47;;;4.60;99.90;;;;;;5060822;28;20143;-78
2021/03/03 07:19:58;;;;;;;7.88;3.60;;;4.60;99.90;;;;;;5063001;28;20024;-79
2021/03/03 07:22:29;;;;;;;8.68;3.38;;;4.70;99.90;;;;;;5048236;28;20488;-79
2021/03/03 07:25:03;;;;;;;11.20;3.67;;;4.70;99.90;;;;;;5062052;28;20381;-78
2021/03/03 07:27:30;;;;;;;9.23;3.60;;;4.70;99.90;;;;;;5064955;28;20044;-79
2021/03/03 07:30:00;;;;;;;6.90;3.30;;;4.80;99.90;;;;;;5064099;28;20052;-79
2021/03/03 07:32:26;;;;;;;11.25;3.40;;;4.80;99.90;;;;;;5061054;28;20025;-78
2021/03/03 07:34:54;;;;;;;11.65;3.58;;;4.90;99.90;;;;;;5044686;28;20067;-79
2021/03/03 07:37:23;;;;;;;9.05;3.35;;;5.00;99.90;;;;;;5062095;28;20029;-78
2021/03/03 07:39:54;;;;;;;10.98;3.30;;;5.10;99.90;;;;;;5057503;28;20029;-78
2021/03/03 07:42:23;;;;;;;7.75;2.72;;;5.20;99.90;;;;;;5067484;28;20089;-79
2021/03/03 07:44:49;;;;;;;6.55;3.10;;;5.20;99.90;;;;;;5068761;28;20028;-79
2021/03/03 07:47:17;;;;;;;6.78;2.53;;;5.40;99.90;;;;;;5063180;28;20024;-78
2021/03/03 07:49:47;;;;;;;8.90;2.85;;;5.50;99.90;;;;;;5067084;28;20051;-80
2021/03/03 07:52:13;;;;;;;8.15;2.50;;;5.60;99.90;;;;;;5070523;28;20021;-78
2021/03/03 07:54:39;;;;;;;7.93;2.65;;;5.70;99.90;;;;;;5060084;28;20419;-78
2021/03/03 07:57:07;;;;;;;8.27;2.55;;;5.80;99.90;;;;;;5051420;28;20037;-80
2021/03/03 07:59:33;;;;;;;9.90;3.00;;;5.90;99.90;;;;;;5042421;28;20036;-78
2021/03/03 08:01:59;;;;;;;7.05;2.72;;;6.00;99.90;;;;;;5043592;28;20052;-79
2021/03/03 08:04:38;;;;;;;6.90;2.40;;;6.10;99.90;;;;;;5038773;28;20025;-79
2021/03/03 08:07:27;;;;;;;6.13;2.42;;;6.30;99.90;;;;;;5037300;28;20553;-79
2021/03/03 08:10:14;;;;;;;7.50;2.75;;;6.30;99.90;;;;;;5041553;28;20473;-81
2021/03/03 08:13:00;;;;;;;7.53;2.72;;;6.40;99.90;;;;;;5039778;28;20083;-79
2021/03/03 08:15:33;;;;;;;10.10;2.95;;;6.50;99.90;;;;;;5043498;28;20029;-79
2021/03/03 08:18:14;;;;;;;6.43;2.60;;;6.60;99.90;;;;;;5035972;28;20036;-79
2021/03/03 08:20:48;;;;;;;8.82;2.65;;;6.60;99.90;;;;;;5038348;28;20037;-78
2021/03/03 08:23:33;;;;;;;6.75;2.50;;;6.60;99.90;;;;;;5030726;28;20041;-79
2021/03/03 08:26:05;;;;;;;6.40;2.60;;;6.70;99.90;;;;;;5038259;28;20128;-80
2021/03/03 08:28:34;;;;;;;7.70;2.95;;;6.80;99.90;;;;;;5041572;28;20090;-82
2021/03/03 08:31:11;;;;;;;6.60;2.88;;;6.90;99.90;;;;;;5028581;28;20382;-84
2021/03/03 08:33:38;;;;;;;6.75;2.60;;;6.90;99.90;;;;;;5022410;28;20037;-82
2021/03/03 08:36:05;;;;;;;9.15;2.95;;;7.10;99.90;;;;;;5022108;28;20048;-82
2021/03/03 08:38:31;;;;;;;7.70;3.10;;;7.30;99.90;;;;;;5022994;28;20072;-83
2021/03/03 08:41:15;;;;;;;9.50;2.80;;;7.30;99.90;;;;;;5019060;28;20084;-84
2021/03/03 08:43:44;;;;;;;4.57;2.40;;;7.40;99.90;;;;;;5021618;28;20034;-84
2021/03/03 08:46:19;;;;;;;5.95;2.42;;;7.30;99.90;;;;;;5024685;28;20793;-82
2021/03/03 08:48:46;;;;;;;4.30;2.17;;;7.50;99.90;;;;;;5015873;28;20666;-84
2021/03/03 08:51:42;;;;;;;15.30;2.60;;;7.60;99.90;;;;;;5017679;28;20412;-84
2021/03/03 08:54:10;;;;;;;4.90;2.05;;;7.70;99.90;;;;;;5012741;28;20572;-86
2021/03/03 08:56:53;;;;;;;5.75;2.35;;;7.90;99.90;;;;;;5018958;28;20033;-85
2021/03/03 08:59:37;;;;;;;7.53;2.40;;;7.90;99.90;;;;;;5021374;28;20061;-84
2021/03/03 09:02:12;;;;;;;6.05;2.30;;;8.10;99.90;;;;;;5019551;28;20405;-84
2021/03/03 09:04:44;;;;;;;7.30;2.58;;;8.20;99.90;;;;;;5023833;28;20029;-81
2021/03/03 09:07:20;;;;;;;5.55;2.05;;;8.20;99.90;;;;;;5021035;28;20026;-84
2021/03/03 09:09:49;;;;;;;8.20;2.55;;;8.20;99.90;;;;;;5027852;28;20030;-82
2021/03/03 09:12:20;;;;;;;9.70;3.15;;;8.40;99.90;;;;;;5027321;28;20034;-83
2021/03/03 09:14:48;;;;;;;6.25;2.35;;;8.60;99.90;;;;;;5044036;28;20056;-83
2021/03/03 09:17:25;;;;;;;4.38;2.60;;;8.80;99.90;;;;;;5025868;28;20035;-81
2021/03/03 09:19:51;;;;;;;4.70;2.33;;;8.90;99.90;;;;;;5011196;28;20442;-82
2021/03/03 09:22:26;;;;;;;4.97;2.40;;;9.10;99.90;;;;;;5023834;28;20044;-79
2021/03/03 09:24:56;;;;;;;6.55;3.13;;;9.30;99.90;;;;;;5021427;28;20026;-79
2021/03/03 09:27:23;;;;;;;10.60;3.35;;;9.40;99.90;;;;;;5028513;28;20021;-80
2021/03/03 09:29:50;;;;;;;6.35;2.40;;;9.60;99.90;;;;;;5027065;28;20120;-80
2021/03/03 09:32:21;;;;;;;4.75;2.38;;;9.70;99.90;;;;;;5038229;28;20032;-81
2021/03/03 09:34:49;;;;;;;7.47;2.50;;;9.70;99.90;;;;;;5043906;28;20033;-80
2021/03/03 09:37:16;;;;;;;7.43;3.05;;;9.70;99.90;;;;;;5044057;28;20392;-79
2021/03/03 09:40:02;;;;;;;8.02;2.80;;;9.70;99.90;;;;;;5038156;28;20542;-80
2021/03/03 09:42:39;;;;;;;7.45;2.55;;;9.80;99.90;;;;;;5029246;28;20043;-80
2021/03/03 09:45:08;;;;;;;7.72;2.88;;;10.10;99.90;;;;;;5038951;28;20029;-80
2021/03/03 09:47:37;;;;;;;8.85;3.22;;;10.30;99.90;;;;;;5038721;28;20033;-82
2021/03/03 09:50:10;;;;;;;8.02;3.00;;;10.40;99.90;;;;;;5036439;28;20037;-79
2021/03/03 09:52:42;;;;;;;8.50;3.25;;;10.50;99.90;;;;;;5042713;28;20026;-80
2021/03/03 09:55:11;;;;;;;7.50;2.95;;;10.60;99.90;;;;;;5055450;28;20021;-79
2021/03/03 09:57:39;;;;;;;7.35;3.17;;;10.90;99.90;;;;;;5047209;28;20496;-81
2021/03/03 10:00:16;;;;;;;5.68;2.83;;;11.00;99.90;;;;;;5041694;28;20129;-81
2021/03/03 10:02:57;;;;;;;4.97;2.60;;;10.90;99.90;;;;;;5048737;28;20514;-80
2021/03/03 10:05:28;;;;;;;8.10;2.78;;;10.90;99.90;;;;;;5032638;28;20072;-80
2021/03/03 10:08:01;;;;;;;5.68;2.58;;;10.80;99.90;;;;;;5040530;28;20473;-81
2021/03/03 10:10:31;;;;;;;8.38;3.35;;;11.00;99.90;;;;;;5047413;28;20033;-80
2021/03/03 10:12:57;;;;;;;6.97;2.72;;;10.80;99.90;;;;;;5041293;28;20025;-80
2021/03/03 10:15:34;;;;;;;6.95;3.05;;;11.00;99.90;;;;;;5042356;28;20056;-81
2021/03/03 10:18:04;;;;;;;5.57;2.45;;;11.00;99.90;;;;;;5045718;28;20494;-83
2021/03/03 10:20:53;;;;;;;8.57;3.50;;;11.20;99.90;;;;;;5041909;28;20041;-82
2021/03/03 10:23:33;;;;;;;5.03;3.28;;;11.40;99.90;;;;;;5033937;28;20456;-81
2021/03/03 10:26:06;;;;;;;;;;;11.50;99.90;;;;;;5037320;28;20189;-81
2021/03/03 10:28:31;;;;;;;7.32;3.50;;;11.50;99.90;;;;;;5034109;28;19913;-84
2021/03/03 10:31:05;;;;;;;6.97;3.38;;;11.70;99.90;;;;;;5039978;28;20064;-83
2021/03/03 10:33:32;;;;;;;8.73;3.65;;;11.80;99.90;;;;;;5037959;28;20394;-82
2021/03/03 10:36:01;;;;;;;9.60;3.80;;;11.70;99.90;;;;;;5028244;28;20444;-85
2021/03/03 10:38:29;;;;;;;8.88;3.60;;;11.90;99.90;;;;;;5046930;28;20518;-84
2021/03/03 10:40:58;;;;;;;5.97;3.67;;;12.10;99.90;;;;;;5055098;28;20057;-81
2021/03/03 10:43:25;;;;;;;7.55;4.22;;;12.20;99.90;;;;;;5043476;28;20032;-82
2021/03/03 10:46:11;;;;;;;10.45;4.25;;;12.30;99.90;;;;;;5044478;28;20029;-84
2021/03/03 10:48:37;;;;;;;8.88;3.63;;;12.40;99.90;;;;;;5034832;28;20362;-83
2021/03/03 10:51:02;;;;;;;5.95;3.85;;;12.20;99.90;;;;;;5046511;28;20040;-83
2021/03/03 10:53:52;;;;;;;6.57;4.10;;;12.30;99.90;;;;;;5040969;28;20477;-84
2021/03/03 10:56:29;;;;;;;9.50;4.22;;;12.00;99.90;;;;;;5042603;28;20477;-81
2021/03/03 10:59:00;;;;;;;7.97;3.90;;;12.00;99.90;;;;;;5038925;28;20040;-84
2021/03/03 11:01:50;;;;;;;8.80;3.90;;;12.10;99.90;;;;;;5035316;28;20075;-84
2021/03/03 11:04:16;;;;;;;9.32;4.00;;;11.90;99.90;;;;;;5047872;28;20021;-82
2021/03/03 11:06:42;;;;;;;8.43;4.43;;;12.00;99.90;;;;;;5045218;28;20021;-83
2021/03/03 11:09:13;;;;;;;12.95;4.78;;;12.20;99.90;;;;;;5050226;28;20029;-83
2021/03/03 11:11:57;;;;;;;8.88;4.35;;;12.50;99.90;;;;;;5043925;28;20044;-84
2021/03/03 11:14:24;;;;;;;6.57;3.97;;;12.80;99.90;;;;;;5037212;28;20025;-83
2021/03/03 11:16:50;;;;;;;5.90;3.50;;;12.80;99.90;;;;;;5044284;28;20025;-84
2021/03/03 11:19:17;;;;;;;5.60;3.88;;;12.70;99.80;;;;;;5040947;28;20025;-83
2021/03/03 11:21:43;;;;;;;10.60;3.92;;;12.70;99.30;;;;;;5039359;28;20079;-83
2021/03/03 11:24:09;;;;;;;8.65;3.67;;;12.70;99.60;;;;;;5042676;28;20024;-83
2021/03/03 11:26:40;;;;;;;9.88;3.53;;;12.60;99.60;;;;;;5049201;28;20017;-82
2021/03/03 11:29:06;;;;;;;7.72;3.60;;;12.50;99.30;;;;;;5049291;28;20041;-82
2021/03/03 11:31:32;;;;;;;8.27;3.67;;;12.50;99.50;;;;;;5056268;28;20028;-83
2021/03/03 11:33:58;;;;;;;5.22;3.40;;;12.70;99.70;;;;;;5056761;28;20033;-83
2021/03/03 11:36:23;;;;;;;6.07;3.90;;;12.90;99.30;;;;;;5051780;28;20017;-82
2021/03/03 11:38:49;;;;;;;7.25;3.78;;;12.90;98.80;;;;;;5046272;28;20029;-83
2021/03/03 11:41:15;;;;;;;5.93;3.60;;;13.00;99.00;;;;;;5047997;28;20132;-83
2021/03/03 11:43:41;;;;;;;5.88;4.18;;;13.20;98.40;;;;;;5044484;28;20028;-82
2021/03/03 11:46:07;;;;;;;8.27;4.53;;;12.90;97.70;;;;;;5051506;28;20046;-83
2021/03/03 11:48:33;;;;;;;7.53;4.68;;;12.80;97.60;;;;;;5032638;28;20036;-82
2021/03/03 11:50:59;;;;;;;6.78;4.40;;;12.70;97.80;;;;;;5049476;28;20484;-83
2021/03/03 11:53:24;;;;;;;7.05;4.80;;;12.70;97.80;;;;;;5038262;28;20052;-83
2021/03/03 11:55:50;;;;;;;9.05;4.93;;;12.80;98.10;;;;;;5042636;28;20061;-83
2021/03/03 11:58:16;;;;;;;8.23;4.88;;;12.90;97.90;;;;;;5050865;28;20108;-81
2021/03/03 12:00:42;;;;;;;7.18;4.80;;;13.00;97.40;;;;;;5034514;28;20116;-83
2021/03/03 12:03:07;;;;;;;8.77;4.63;;;12.80;96.80;;;;;;5036854;28;20025;-82
2021/03/03 12:05:33;;;;;;;8.25;4.93;;;12.70;97.20;;;;;;5045716;28;20472;-82
2021/03/03 12:07:59;;;;;;;8.40;4.43;;;12.80;97.50;;;;;;5042478;28;20025;-81
2021/03/03 12:10:25;;;;;;;6.57;4.30;;;12.90;97.60;;;;;;5047611;28;20522;-83
2021/03/03 12:12:51;;;;;;;8.00;4.45;;;13.10;97.80;;;;;;5044950;28;20033;-80
2021/03/03 12:15:16;;;;;;;6.78;4.43;;;13.30;97.60;;;;;;5049094;28;20152;-81
2021/03/03 12:17:43;;;;;;;7.78;4.40;;;13.40;97.00;;;;;;5037809;28;20025;-83
2021/03/03 12:20:10;;;;;;;6.45;4.35;;;13.20;96.40;;;;;;5047720;28;20645;-81
2021/03/03 12:22:35;;;;;;;12.82;4.90;;;13.30;96.40;;;;;;5044858;28;20037;-81
2021/03/03 12:25:01;;;;;;;9.52;5.20;;;13.50;96.60;;;;;;5041742;28;20362;-79
2021/03/03 12:27:27;;;;;;;7.85;4.90;;;13.40;95.70;;;;;;5043472;28;20029;-80
2021/03/03 12:29:55;;;;;;;7.88;4.70;;;13.30;96.00;;;;;;5040935;28;20064;-81
2021/03/03 12:32:21;;;;;;;8.68;4.15;;;13.20;96.10;;;;;;5050471;28;20024;-81
2021/03/03 12:34:47;;;;;;;8.20;4.40;;;13.30;95.80;;;;;;5041936;28;20055;-83
2021/03/03 12:37:12;;;;;;;9.90;4.28;;;13.10;95.30;;;;;;5050142;28;20028;-80
2021/03/03 12:39:38;;;;;;;6.90;4.10;;;13.20;95.60;;;;;;5050964;28;20373;-81
2021/03/03 12:42:04;;;;;;;9.23;4.63;;;13.20;95.60;;;;;;5050000;28;20029;-82
2021/03/03 12:44:30;;;;;;;7.20;4.15;;;13.30;95.40;;;;;;5044775;28;20151;-80
2021/03/03 12:46:56;;;;;;;7.50;4.53;;;13.40;95.20;;;;;;5039929;28;20039;-80
2021/03/03 12:49:22;;;;;;;7.85;4.72;;;13.20;95.00;;;;;;5043605;28;20076;-80
2021/03/03 12:51:47;;;;;;;9.20;4.80;;;13.10;95.20;;;;;;5043143;28;20029;-81
2021/03/03 12:54:13;;;;;;;10.00;4.40;;;13.10;95.30;;;;;;5035779;28;20092;-82
2021/03/03 12:56:40;;;;;;;6.97;4.53;;;13.20;95.50;;;;;;5047571;28;20033;-81